Time;durP1;ratioP1;P1;durP2;ratioP2;P2;SDS_P1;SDS_P2;PMS_P1;PMS_P2;Temp;Humidity;BMP_temperature;BMP_pressure;BME280_temperature;BME280_humidity;BME280_pressure;Samples;Min_cycle;Max_cycle;Signal;HPM_P1;HPM_P2
2022/10/26 00:00:25;;;;;;;3.45;2.55;;;;;;;17.88;54.44;93646.41;5029915;28;20037;-90
2022/10/26 00:02:50;;;;;;;3.33;2.53;;;;;;;17.91;54.49;93650.13;5032874;28;20036;-91
2022/10/26 00:05:16;;;;;;;3.60;2.75;;;;;;;17.90;54.47;93649.38;5033152;28;20391;-90
2022/10/26 00:07:41;;;;;;;2.55;2.35;;;;;;;17.89;54.61;93647.91;5038919;28;20056;-91
2022/10/26 00:10:07;;;;;;;3.22;2.47;;;;;;;17.88;54.48;93643.66;5030129;28;20491;-90
2022/10/26 00:12:32;;;;;;;3.08;2.10;;;;;;;17.90;54.68;93646.66;5016333;28;20052;-90
2022/10/26 00:14:58;;;;;;;3.22;2.58;;;;;;;17.88;54.32;93638.19;5014253;28;20086;-91
2022/10/26 00:17:23;;;;;;;2.60;2.25;;;;;;;17.88;54.21;93635.47;5010774;28;20038;-91
2022/10/26 00:19:49;;;;;;;3.20;2.33;;;;;;;17.90;54.38;93632.97;5040586;28;20036;-91
2022/10/26 00:22:14;;;;;;;6.15;3.30;;;;;;;17.88;54.37;93629.25;5044842;28;20037;-91
2022/10/26 00:24:40;;;;;;;3.38;2.65;;;;;;;17.89;54.45;93649.88;5047170;28;20117;-90
2022/10/26 00:27:05;;;;;;;4.63;2.20;;;;;;;17.88;54.26;93643.66;5029847;28;20044;-90
2022/10/26 00:29:30;;;;;;;2.67;1.75;;;;;;;17.88;54.49;93646.41;5023593;28;20032;-91
2022/10/26 00:31:56;;;;;;;4.70;2.33;;;;;;;17.87;54.36;93644.91;5027867;28;20084;-90
2022/10/26 00:34:21;;;;;;;2.75;2.00;;;;;;;17.86;54.32;93637.94;5032298;28;20048;-90
2022/10/26 00:36:48;;;;;;;3.08;2.20;;;;;;;17.88;54.24;93632.72;5039631;28;20438;-90
2022/10/26 00:39:13;;;;;;;2.38;1.80;;;;;;;17.88;54.59;93632.72;5013504;28;20041;-91
2022/10/26 00:41:38;;;;;;;3.20;2.47;;;;;;;17.88;54.32;93623.78;5030061;28;20041;-90
2022/10/26 00:44:41;;;;;;;4.55;2.10;;;;;;;17.88;54.38;93623.78;5013305;28;20037;-92
2022/10/26 00:47:09;;;;;;;2.15;1.85;;;;;;;17.87;54.26;93616.81;5058125;28;20048;-90
2022/10/26 00:49:34;;;;;;;3.13;2.28;;;;;;;17.87;54.47;93622.28;5033842;28;20055;-91
2022/10/26 00:52:00;;;;;;;3.17;2.20;;;;;;;17.87;54.39;93631.25;5033503;28;20506;-91
2022/10/26 00:54:25;;;;;;;2.17;1.75;;;;;;;17.87;54.18;93619.56;5033181;28;20059;-91
2022/10/26 00:56:51;;;;;;;2.85;2.10;;;;;;;17.88;54.36;93610.09;5015810;28;20345;-90
2022/10/26 00:59:16;;;;;;;2.42;2.00;;;;;;;17.86;54.29;93618.81;5030080;28;20033;-91
2022/10/26 01:01:44;;;;;;;2.50;1.90;;;;;;;17.86;54.62;93624.28;5012024;28;20045;-91
2022/10/26 01:04:10;;;;;;;2.50;1.92;;;;;;;17.86;54.58;93618.06;5032700;28;20102;-91
2022/10/26 01:06:36;;;;;;;1.90;1.65;;;;;;;17.87;54.54;93614.09;5026426;28;20038;-91
2022/10/26 01:09:01;;;;;;;2.45;2.10;;;;;;;17.85;53.97;93611.84;5039759;28;20040;-91
2022/10/26 01:11:27;;;;;;;2.10;1.67;;;;;;;17.85;54.37;93616.56;5021838;28;20137;-89
2022/10/26 01:13:52;;;;;;;2.53;2.10;;;;;;;17.86;54.29;93618.06;5053300;28;20430;-90
2022/10/26 01:16:25;;;;;;;4.18;1.88;;;;;;;17.86;54.47;93626.28;5035898;28;20040;-90
2022/10/26 01:19:03;;;;;;;2.92;1.73;;;;;;;17.85;54.33;93622.03;5029776;28;20034;-90
2022/10/26 01:21:31;;;;;;;2.13;1.77;;;;;;;17.84;54.55;93613.09;4992718;28;20038;-91
2022/10/26 01:24:09;;;;;;;2.63;1.50;;;;;;;17.86;54.31;93620.81;5024720;28;20033;-90
2022/10/26 01:26:40;;;;;;;2.45;1.67;;;;;;;17.86;54.01;93609.84;5033147;28;20135;-91
2022/10/26 01:29:05;;;;;;;4.32;1.75;;;;;;;17.84;54.65;93615.81;5032066;28;20033;-90
2022/10/26 01:31:49;;;;;;;2.40;1.77;;;;;;;17.85;54.55;93611.09;5036830;28;20572;-90
2022/10/26 01:34:27;;;;;;;3.30;1.75;;;;;;;17.84;53.99;93609.63;4999485;28;20037;-90
2022/10/26 01:36:55;;;;;;;2.15;1.85;;;;;;;17.84;54.08;93610.34;4997117;28;20527;-90
2022/10/26 01:39:22;;;;;;;2.28;1.67;;;;;;;17.84;54.53;93615.81;5012437;28;20065;-89
2022/10/26 01:41:54;;;;;;;3.47;1.80;;;;;;;17.85;54.15;93613.84;5016852;28;20068;-90
2022/10/26 01:44:22;;;;;;;1.83;1.60;;;;;;;17.84;54.15;93609.63;5010025;28;20033;-91
2022/10/26 01:46:49;;;;;;;2.15;1.48;;;;;;;17.84;54.61;93609.63;5047453;28;20044;-91
2022/10/26 01:49:14;;;;;;;2.75;1.83;;;;;;;17.84;54.15;93602.16;5052567;28;20127;-91
2022/10/26 01:51:41;;;;;;;2.35;1.58;;;;;;;17.83;54.52;93597.94;5035737;28;20203;-90
2022/10/26 01:54:07;;;;;;;5.50;1.40;;;;;;;17.85;54.65;93591.97;5035131;28;20043;-90
2022/10/26 01:56:35;;;;;;;1.52;1.30;;;;;;;17.85;54.53;93594.69;5024642;28;20037;-90
2022/10/26 01:59:22;;;;;;;1.95;1.42;;;;;;;17.85;54.48;93589.22;5016054;28;20040;-90
2022/10/26 02:02:11;;;;;;;2.50;1.50;;;;;;;17.81;54.60;93573.81;5029030;28;20508;-91
2022/10/26 02:05:00;;;;;;;2.45;1.77;;;;;;;17.83;54.19;93578.78;5028875;28;20053;-91
2022/10/26 02:08:03;;;;;;;1.85;1.60;;;;;;;17.82;54.55;93580.03;5029287;28;20038;-91
2022/10/26 02:10:53;;;;;;;2.88;1.90;;;;;;;17.83;54.26;93576.06;5029104;28;20496;-91
2022/10/26 02:13:39;;;;;;;2.75;1.60;;;;;;;17.83;54.38;93565.13;5009593;28;20060;-91
2022/10/26 02:16:20;;;;;;;1.70;1.20;;;;;;;17.82;54.41;93569.09;5028250;28;20488;-91
2022/10/26 02:18:53;;;;;;;1.60;1.40;;;;;;;17.84;54.29;93571.34;4997612;28;20057;-90
2022/10/26 02:21:21;;;;;;;3.80;1.40;;;;;;;17.81;54.52;93565.63;5027500;28;20048;-91
2022/10/26 02:23:47;;;;;;;1.83;1.45;;;;;;;17.81;54.16;93571.09;5012723;28;20507;-90
2022/10/26 02:26:12;;;;;;;1.85;1.70;;;;;;;17.83;54.32;93569.84;4995594;28;20040;-90
2022/10/26 02:28:42;;;;;;;2.40;1.65;;;;;;;17.82;54.35;93574.56;4995424;28;20045;-91
2022/10/26 02:31:07;;;;;;;1.80;1.40;;;;;;;17.81;54.59;93571.09;5014659;28;20124;-90
2022/10/26 02:33:36;;;;;;;1.80;1.60;;;;;;;17.79;54.35;93573.56;5014596;28;20056;-90
2022/10/26 02:36:02;;;;;;;2.03;1.30;;;;;;;17.81;54.46;93570.34;5009110;28;20121;-91
2022/10/26 02:38:28;;;;;;;1.40;1.20;;;;;;;17.81;54.43;93567.59;4989236;28;20053;-89
2022/10/26 02:40:53;;;;;;;1.60;1.50;;;;;;;17.81;54.50;93567.59;4975877;28;20324;-88
2022/10/26 02:43:20;;;;;;;1.95;1.10;;;;;;;17.81;54.77;93568.34;5007556;28;20048;-88
2022/10/26 02:45:54;;;;;;;1.65;1.20;;;;;;;17.80;54.30;93560.66;4979828;28;20049;-88
2022/10/26 02:48:19;;;;;;;1.33;1.10;;;;;;;17.82;54.34;93558.16;5007726;28;20441;-87
2022/10/26 02:51:10;;;;;;;2.45;1.70;;;;;;;17.81;54.38;93568.34;4992184;28;20041;-88
2022/10/26 02:53:45;;;;;;;2.47;1.50;;;;;;;17.82;54.07;93563.63;4995112;28;20403;-88
2022/10/26 02:56:15;;;;;;;1.52;1.10;;;;;;;17.82;54.49;93558.16;5030681;28;20040;-88
2022/10/26 02:58:41;;;;;;;2.55;1.63;;;;;;;17.82;54.86;93555.44;5022270;28;20116;-88
2022/10/26 03:01:07;;;;;;;1.83;1.23;;;;;;;17.81;54.68;93564.88;5051392;28;20032;-87
2022/10/26 03:03:34;;;;;;;2.17;1.30;;;;;;;17.81;54.49;93568.34;5048286;28;20527;-88
2022/10/26 03:05:59;;;;;;;1.08;1.00;;;;;;;17.80;54.75;93568.84;5030768;28;20048;-88
2022/10/26 03:08:24;;;;;;;1.10;1.00;;;;;;;17.79;54.36;93557.16;5045464;28;20032;-88
2022/10/26 03:10:50;;;;;;;1.80;1.20;;;;;;;17.81;54.44;93570.34;5034451;28;20030;-88
2022/10/26 03:13:15;;;;;;;1.92;1.05;;;;;;;17.81;54.42;93568.34;5014438;28;20048;-88
2022/10/26 03:15:41;;;;;;;1.45;1.20;;;;;;;17.79;54.57;93562.63;5036743;28;20029;-88
2022/10/26 03:18:06;;;;;;;1.20;0.93;;;;;;;17.79;54.45;93570.84;5046714;28;20040;-88
2022/10/26 03:20:32;;;;;;;1.42;1.05;;;;;;;17.80;54.23;93571.59;5040234;28;20483;-87
2022/10/26 03:22:57;;;;;;;2.38;1.20;;;;;;;17.80;54.52;93571.59;5043353;28;20519;-88
2022/10/26 03:25:23;;;;;;;1.23;0.95;;;;;;;17.78;54.18;93580.28;5049854;28;20043;-88
2022/10/26 03:27:56;;;;;;;1.25;1.13;;;;;;;17.80;54.57;93579.78;5033989;28;20041;-88
2022/10/26 03:30:22;;;;;;;1.90;1.20;;;;;;;17.79;54.21;93584.50;5060958;28;20036;-88
2022/10/26 03:32:47;;;;;;;1.77;1.20;;;;;;;17.79;54.38;93589.25;5052687;28;20086;-89
2022/10/26 03:35:13;;;;;;;2.80;1.23;;;;;;;17.79;54.24;93584.50;5049011;28;20028;-88
2022/10/26 03:37:38;;;;;;;1.45;1.10;;;;;;;17.80;54.47;93588.00;5033308;28;20048;-88
2022/10/26 03:40:04;;;;;;;0.90;0.80;;;;;;;17.80;54.41;93590.72;5050272;28;20426;-88
2022/10/26 03:42:32;;;;;;;1.50;1.10;;;;;;;17.77;54.22;93591.72;5050422;28;20044;-88
2022/10/26 03:44:58;;;;;;;1.13;0.90;;;;;;;17.78;54.52;93591.22;5034114;28;20086;-88
2022/10/26 03:47:23;;;;;;;1.33;1.20;;;;;;;17.79;54.23;93603.66;5013202;28;20041;-88
2022/10/26 03:49:49;;;;;;;1.45;1.08;;;;;;;17.78;54.49;93610.38;5026071;28;20037;-87
2022/10/26 03:52:14;;;;;;;1.65;1.13;;;;;;;17.79;54.48;93614.59;5032947;28;20502;-87
2022/10/26 03:54:39;;;;;;;1.40;0.95;;;;;;;17.79;54.61;93609.13;5033341;28;20049;-89
2022/10/26 03:57:05;;;;;;;1.88;0.98;;;;;;;17.79;54.05;93609.13;5040588;28;20036;-87
2022/10/26 03:59:30;;;;;;;1.10;1.00;;;;;;;17.78;54.50;93596.69;5050047;28;20029;-88
2022/10/26 04:01:56;;;;;;;1.25;1.08;;;;;;;17.80;54.52;93607.13;5050576;28;20523;-88
2022/10/26 04:04:21;;;;;;;0.90;0.88;;;;;;;17.80;54.27;93601.66;5050232;28;20040;-88
2022/10/26 04:06:46;;;;;;;1.30;0.90;;;;;;;17.80;54.29;93607.88;5032850;28;20047;-88
2022/10/26 04:09:12;;;;;;;1.60;1.20;;;;;;;17.79;54.34;93614.59;5049853;28;20040;-88
2022/10/26 04:11:37;;;;;;;2.28;1.00;;;;;;;17.79;54.41;93614.59;5034166;28;20052;-88
2022/10/26 04:14:02;;;;;;;1.13;1.00;;;;;;;17.79;54.49;93619.31;5017056;28;20040;-87
2022/10/26 04:16:28;;;;;;;1.38;1.23;;;;;;;17.78;54.44;93618.56;5041410;28;20036;-89
2022/10/26 04:18:53;;;;;;;1.45;1.08;;;;;;;17.78;54.36;93623.28;5041842;28;20033;-88
2022/10/26 04:21:19;;;;;;;1.08;0.80;;;;;;;17.78;54.33;93617.81;5042384;28;20033;-89
2022/10/26 04:23:44;;;;;;;1.48;0.80;;;;;;;17.78;54.37;93624.03;5056478;28;20442;-89
2022/10/26 04:26:09;;;;;;;1.27;0.80;;;;;;;17.80;54.47;93623.53;5033045;28;20062;-88
2022/10/26 04:28:35;;;;;;;0.85;0.80;;;;;;;17.82;54.38;93615.59;5021157;28;20033;-87
2022/10/26 04:31:00;;;;;;;2.90;1.05;;;;;;;17.83;54.25;93624.53;5039744;28;20024;-88
2022/10/26 04:33:26;;;;;;;1.27;1.00;;;;;;;17.80;54.33;93624.28;5041512;28;20048;-88
2022/10/26 04:35:51;;;;;;;1.00;0.80;;;;;;;17.77;54.34;93627.28;5034051;28;20032;-88
2022/10/26 04:38:16;;;;;;;1.23;0.82;;;;;;;17.80;54.40;93627.03;5048887;28;20438;-88
2022/10/26 04:40:42;;;;;;;1.30;0.95;;;;;;;17.82;54.13;93632.00;5046253;28;20524;-88
2022/10/26 04:43:10;;;;;;;25.02;18.95;;;;;;;17.83;54.05;93638.94;5035935;28;20052;-90
2022/10/26 04:45:36;;;;;;;1.80;1.40;;;;;;;17.80;53.96;93627.03;5036759;28;20041;-88
2022/10/26 04:48:09;;;;;;;1.20;0.95;;;;;;;17.83;54.03;93621.78;5069280;28;20048;-88
2022/10/26 04:50:35;;;;;;;4.20;3.65;;;;;;;17.81;54.32;93623.03;5036624;28;20048;-89
2022/10/26 04:53:00;;;;;;;3.42;3.10;;;;;;;17.84;54.40;93621.28;5041339;28;20471;-90
2022/10/26 04:55:26;;;;;;;3.10;2.80;;;;;;;17.83;54.45;93610.84;5075698;28;20069;-89
2022/10/26 04:57:51;;;;;;;2.90;2.53;;;;;;;17.84;54.04;93618.56;5070797;28;20036;-88
2022/10/26 05:00:16;;;;;;;3.97;2.88;;;;;;;17.83;54.16;93600.66;5037218;28;20044;-90
2022/10/26 05:02:42;;;;;;;2.83;2.35;;;;;;;17.83;53.93;93605.38;5057903;28;20119;-88
2022/10/26 05:05:07;;;;;;;3.17;2.58;;;;;;;17.84;54.15;93598.69;5057727;28;20032;-89
2022/10/26 05:07:33;;;;;;;3.08;2.80;;;;;;;17.83;54.49;93597.94;5057891;28;20028;-88
2022/10/26 05:09:58;;;;;;;3.08;2.47;;;;;;;17.82;54.22;93612.84;5065423;28;20035;-90
2022/10/26 05:12:24;;;;;;;3.38;2.30;;;;;;;17.83;54.45;93611.59;5077102;28;20379;-88
2022/10/26 05:14:49;;;;;;;3.38;2.40;;;;;;;17.85;54.32;93600.91;5057950;28;20055;-89
2022/10/26 05:17:14;;;;;;;3.80;2.92;;;;;;;17.83;54.50;93595.19;5057390;28;20036;-89
2022/10/26 05:19:40;;;;;;;3.55;2.80;;;;;;;17.83;54.23;93587.00;5057346;28;20036;-88
2022/10/26 05:22:05;;;;;;;5.00;3.50;;;;;;;17.83;54.19;93591.72;5087384;28;20390;-89
2022/10/26 05:24:31;;;;;;;4.20;3.60;;;;;;;17.84;54.22;93590.47;5060274;28;20037;-90
2022/10/26 05:26:56;;;;;;;3.50;3.15;;;;;;;17.84;54.12;93587.75;5041174;28;20039;-90
2022/10/26 05:29:21;;;;;;;5.63;3.60;;;;;;;17.83;54.45;93584.25;5054182;28;20044;-89
2022/10/26 05:31:47;;;;;;;4.60;2.95;;;;;;;17.85;54.13;93583.75;5038505;28;20431;-89
2022/10/26 05:34:12;;;;;;;2.80;2.38;;;;;;;17.84;54.63;93574.81;5070705;28;20031;-88
2022/10/26 05:36:38;;;;;;;4.18;3.10;;;;;;;17.85;54.51;93581.03;5077672;28;20035;-89
2022/10/26 05:39:03;;;;;;;3.47;2.47;;;;;;;17.84;54.41;93577.53;5079775;28;20040;-89
2022/10/26 05:41:28;;;;;;;3.22;2.40;;;;;;;17.84;54.44;93585.75;5057797;28;20032;-89
2022/10/26 05:43:54;;;;;;;3.33;2.40;;;;;;;17.83;54.25;93578.78;5058126;28;20032;-89
2022/10/26 05:46:20;;;;;;;3.92;2.50;;;;;;;17.84;54.20;93583.00;5040795;28;20044;-89
2022/10/26 05:48:46;;;;;;;6.55;2.80;;;;;;;17.86;54.39;93586.00;5057694;28;20040;-89
2022/10/26 05:51:13;;;;;;;5.50;3.05;;;;;;;17.84;54.21;93579.53;5074545;28;20025;-90
2022/10/26 05:53:38;;;;;;;6.60;3.17;;;;;;;17.84;54.21;93585.75;5040131;28;20047;-90
2022/10/26 05:56:19;;;;;;;8.73;3.72;;;;;;;17.85;54.54;93583.75;5039575;28;20101;-89
2022/10/26 05:58:46;;;;;;;6.68;2.97;;;;;;;17.85;54.13;93587.22;5043543;28;20047;-89
2022/10/26 06:01:21;;;;;;;6.18;3.42;;;;;;;17.86;54.43;93577.78;5042416;28;20028;-87
2022/10/26 06:04:11;;;;;;;21.52;14.93;;;;;;;17.89;54.18;93589.72;5058388;28;20109;-87
2022/10/26 06:06:42;;;;;;;5.53;3.10;;;;;;;17.89;54.44;93598.66;5044673;28;20044;-88
2022/10/26 06:09:11;;;;;;;5.93;3.65;;;;;;;17.88;54.32;93599.91;5056967;28;20122;-88
2022/10/26 06:11:38;;;;;;;7.90;4.55;;;;;;;17.87;54.32;93592.22;5040799;28;20033;-88
2022/10/26 06:14:04;;;;;;;13.13;10.10;;;;;;;17.91;54.51;93604.38;5026493;28;20387;-89
2022/10/26 06:16:35;;;;;;;8.30;4.70;;;;;;;17.92;54.32;93603.13;5063209;28;20040;-88
2022/10/26 06:19:04;;;;;;;6.43;4.47;;;;;;;17.94;54.29;93624.50;5076393;28;20036;-89
2022/10/26 06:21:42;;;;;;;6.93;4.90;;;;;;;17.93;54.25;93629.25;5067363;28;20047;-89
2022/10/26 06:24:20;;;;;;;8.13;5.40;;;;;;;17.92;54.21;93635.22;5054471;28;20070;-89
2022/10/26 06:27:05;;;;;;;7.28;4.47;;;;;;;17.90;54.21;93643.91;5053943;28;20372;-88
2022/10/26 06:29:41;;;;;;;7.20;5.00;;;;;;;17.89;54.22;93636.22;5051012;28;20044;-88
2022/10/26 06:32:08;;;;;;;6.40;4.60;;;;;;;17.90;54.22;93637.69;5039052;28;20024;-89
2022/10/26 06:34:34;;;;;;;6.32;4.60;;;;;;;17.89;54.18;93645.16;5024561;28;20651;-89
2022/10/26 06:36:59;;;;;;;5.38;4.10;;;;;;;17.89;54.21;93645.16;5052286;28;20033;-90
2022/10/26 06:39:26;;;;;;;7.35;4.32;;;;;;;17.90;53.98;93646.66;5025967;28;20521;-88
2022/10/26 06:41:51;;;;;;;6.72;4.47;;;;;;;17.90;54.49;93646.66;5068989;28;20086;-89
2022/10/26 06:44:21;;;;;;;5.70;3.90;;;;;;;17.89;54.55;93647.16;5070824;28;20600;-89
2022/10/26 06:46:48;;;;;;;5.82;3.60;;;;;;;17.88;53.92;93660.06;5035245;28;20064;-90
2022/10/26 06:49:32;;;;;;;5.22;3.67;;;;;;;17.89;54.38;93675.25;5019263;28;20380;-89
2022/10/26 06:52:08;;;;;;;6.55;3.97;;;;;;;17.89;53.94;93677.97;5071051;28;20053;-87
2022/10/26 06:54:45;;;;;;;3.90;3.15;;;;;;;17.88;53.96;93681.22;5070258;28;20032;-88
2022/10/26 06:57:10;;;;;;;3.08;2.55;;;;;;;17.92;54.13;93676.22;5087869;28;20123;-89
2022/10/26 06:59:37;;;;;;;5.40;3.13;;;;;;;17.92;54.09;93670.75;5047821;28;20036;-88
2022/10/26 07:02:03;;;;;;;5.43;3.40;;;;;;;17.91;54.21;93669.28;5055116;28;20124;-88
2022/10/26 07:04:28;;;;;;;5.63;3.22;;;;;;;17.89;53.94;93669.03;5055343;28;20048;-88
2022/10/26 07:06:55;;;;;;;4.90;3.70;;;;;;;17.90;54.24;93667.78;5071479;28;20387;-88
2022/10/26 07:09:21;;;;;;;6.00;4.00;;;;;;;17.90;54.10;93665.78;5054092;28;20043;-88
2022/10/26 07:11:46;;;;;;;7.47;5.43;;;;;;;17.88;54.41;93665.53;5050044;28;20060;-88
2022/10/26 07:14:13;;;;;;;7.60;4.97;;;;;;;17.93;54.20;93672.25;5036924;28;20032;-88
2022/10/26 07:16:38;;;;;;;20.83;6.13;;;;;;;17.89;53.92;93686.19;5070969;28;20040;-88
2022/10/26 07:19:04;;;;;;;77.03;15.13;;;;;;;17.92;54.05;93687.91;5029497;28;20094;-88
2022/10/26 07:21:29;;;;;;;47.40;10.73;;;;;;;17.92;54.22;93704.34;5066422;28;20047;-88
2022/10/26 07:23:55;;;;;;;36.65;9.70;;;;;;;17.91;54.11;93704.81;5068054;28;20050;-87
2022/10/26 07:26:21;;;;;;;39.25;11.40;;;;;;;17.93;54.13;93707.81;5036781;28;20036;-88
2022/10/26 07:28:49;;;;;;;35.20;8.07;;;;;;;17.91;54.18;93713.03;5070585;28;20075;-88
2022/10/26 07:31:14;;;;;;;39.85;9.75;;;;;;;17.90;54.43;93706.06;5045304;28;20036;-89
2022/10/26 07:33:40;;;;;;;48.33;11.25;;;;;;;17.90;54.18;93717.00;5053549;28;20049;-88
2022/10/26 07:36:07;;;;;;;55.15;11.35;;;;;;;17.92;54.16;93730.94;5037241;28;20031;-89
2022/10/26 07:38:33;;;;;;;37.08;9.48;;;;;;;17.94;54.28;93726.47;5088742;28;20028;-87
2022/10/26 07:40:58;;;;;;;34.60;8.98;;;;;;;17.94;54.37;93729.19;5053825;28;20031;-88
2022/10/26 07:43:23;;;;;;;27.55;8.63;;;;;;;17.95;53.98;93736.16;5053796;28;20442;-88
2022/10/26 07:45:50;;;;;;;26.27;8.88;;;;;;;17.95;54.34;93746.34;5070487;28;20418;-88
2022/10/26 07:48:15;;;;;;;33.85;11.35;;;;;;;17.90;54.51;93756.03;5069930;28;20036;-88
2022/10/26 07:50:41;;;;;;;44.15;11.85;;;;;;;17.93;54.08;93760.53;5069977;28;20515;-88
2022/10/26 07:53:06;;;;;;;64.20;10.95;;;;;;;17.91;54.23;93765.75;5052998;28;20040;-87
2022/10/26 07:55:31;;;;;;;129.90;16.35;;;;;;;17.89;54.57;93760.03;5053433;28;20046;-88
2022/10/26 07:57:57;;;;;;;112.57;13.80;;;;;;;17.90;53.78;93755.31;5050033;28;20040;-87
2022/10/26 08:00:22;;;;;;;73.30;11.95;;;;;;;17.94;54.38;93753.81;5032767;28;20540;-87
2022/10/26 08:02:48;;;;;;;47.75;9.20;;;;;;;17.93;54.01;93763.25;5048706;28;20048;-88
2022/10/26 08:05:13;;;;;;;38.63;9.10;;;;;;;17.95;54.25;93763.50;5069121;28;20032;-88
2022/10/26 08:07:42;;;;;;;33.15;8.32;;;;;;;17.93;54.35;93771.47;5053246;28;20032;-88
2022/10/26 08:10:08;;;;;;;27.77;7.05;;;;;;;17.92;54.35;93769.97;5052057;28;20044;-88
2022/10/26 08:12:34;;;;;;;43.90;8.35;;;;;;;17.96;54.70;93770.47;5052975;28;20063;-88
2022/10/26 08:14:59;;;;;;;34.38;6.45;;;;;;;17.96;54.37;93769.72;5069425;28;20036;-89
2022/10/26 08:17:25;;;;;;;24.80;6.45;;;;;;;17.93;54.40;93767.97;5070411;28;20040;-88
2022/10/26 08:19:50;;;;;;;33.00;7.10;;;;;;;17.94;54.42;93772.94;5054011;28;20048;-87
2022/10/26 08:22:16;;;;;;;27.02;6.90;;;;;;;17.94;54.20;93772.94;5069576;28;20037;-88
2022/10/26 08:24:43;;;;;;;23.45;7.78;;;;;;;17.96;54.46;93780.66;5073361;28;20505;-87
2022/10/26 08:27:08;;;;;;;24.65;6.68;;;;;;;17.93;54.36;93776.19;5091115;28;20039;-88
2022/10/26 08:29:33;;;;;;;16.10;5.45;;;;;;;17.97;54.12;93773.94;5073352;28;20044;-89
2022/10/26 08:31:59;;;;;;;19.98;5.93;;;;;;;17.94;54.35;93774.94;5056523;28;20579;-88
2022/10/26 08:34:24;;;;;;;18.95;6.60;;;;;;;17.97;54.22;93782.16;5055805;28;20035;-88
2022/10/26 08:36:50;;;;;;;16.70;5.70;;;;;;;17.96;54.45;93770.47;5056197;28;20024;-89
2022/10/26 08:39:16;;;;;;;18.10;5.65;;;;;;;17.95;54.24;93768.97;5072670;28;20036;-87
2022/10/26 08:41:43;;;;;;;20.20;5.05;;;;;;;17.98;53.95;93781.63;5056744;28;20047;-88
2022/10/26 08:44:28;;;;;;;15.77;5.15;;;;;;;17.93;54.58;93766.00;5056832;28;20067;-88
2022/10/26 08:46:58;;;;;;;11.43;4.38;;;;;;;17.94;54.35;93759.28;5050459;28;20551;-87
2022/10/26 08:49:42;;;;;;;10.88;3.78;;;;;;;17.95;54.31;93762.75;5071113;28;20040;-89
2022/10/26 08:52:09;;;;;;;13.55;4.45;;;;;;;17.94;54.59;93755.81;5057711;28;20036;-89
2022/10/26 08:54:37;;;;;;;14.52;4.75;;;;;;;17.97;54.49;93758.25;5040113;28;20465;-89
2022/10/26 08:57:19;;;;;;;12.15;4.25;;;;;;;17.94;54.53;93762.00;5056745;28;20036;-89
2022/10/26 08:59:45;;;;;;;9.90;4.43;;;;;;;17.96;54.32;93767.00;5064576;28;20059;-88
2022/10/26 09:02:11;;;;;;;10.63;5.35;;;;;;;17.97;54.08;93760.28;5072525;28;20052;-89
2022/10/26 09:04:37;;;;;;;9.05;4.93;;;;;;;17.96;54.05;93765.00;5032450;28;20040;-88
2022/10/26 09:07:31;;;;;;;6.90;4.00;;;;;;;17.94;54.03;93759.28;5053242;28;20024;-87
2022/10/26 09:10:21;;;;;;;11.45;3.88;;;;;;;17.92;53.53;93761.03;5058001;28;20028;-88
2022/10/26 09:13:09;;;;;;;12.13;3.55;;;;;;;17.92;53.52;93769.22;5045927;28;20958;-90
2022/10/26 09:15:46;;;;;;;8.23;3.53;;;;;;;17.93;53.89;93768.72;5072791;28;20038;-88
2022/10/26 09:18:27;;;;;;;11.30;3.53;;;;;;;17.94;53.66;93778.44;5072370;28;20060;-88
2022/10/26 09:21:08;;;;;;;10.15;5.15;;;;;;;17.94;53.86;93772.94;5090888;28;20093;-89
2022/10/26 09:23:44;;;;;;;19.08;7.38;;;;;;;17.94;53.81;93785.88;5040698;28;20040;-89
2022/10/26 09:26:12;;;;;;;29.50;9.13;;;;;;;17.94;53.74;93777.69;5055604;28;20502;-89
2022/10/26 09:28:38;;;;;;;26.58;7.97;;;;;;;17.98;53.96;93789.09;5056098;28;20036;-88
2022/10/26 09:31:04;;;;;;;13.30;5.00;;;;;;;17.96;54.04;93791.59;5058786;28;20054;-89
2022/10/26 09:33:31;;;;;;;13.27;5.35;;;;;;;17.94;53.88;93791.34;5064597;28;20040;-90
2022/10/26 09:36:06;;;;;;;12.45;5.30;;;;;;;17.98;54.28;93800.03;5054543;28;20497;-87
2022/10/26 09:38:39;;;;;;;14.05;6.95;;;;;;;18.01;54.14;93801.78;5064391;28;20070;-89
2022/10/26 09:41:07;;;;;;;11.57;6.45;;;;;;;17.99;54.16;93809.72;5039248;28;20166;-89
2022/10/26 09:43:49;;;;;;;11.65;6.63;;;;;;;17.96;54.36;93811.50;5072100;28;20032;-89
2022/10/26 09:46:17;;;;;;;9.43;6.00;;;;;;;18.00;54.54;93814.72;5055342;28;20477;-90
2022/10/26 09:48:55;;;;;;;13.55;6.10;;;;;;;18.00;53.81;93817.44;5056127;28;20032;-88
2022/10/26 09:51:22;;;;;;;8.38;5.05;;;;;;;18.02;54.12;93828.63;5055078;28;20078;-88
2022/10/26 09:53:48;;;;;;;7.55;4.65;;;;;;;18.01;54.25;93821.66;5039155;28;20468;-88
2022/10/26 09:56:14;;;;;;;10.95;5.22;;;;;;;18.06;54.40;93811.97;5054849;28;20052;-88
2022/10/26 09:58:43;;;;;;;15.25;7.75;;;;;;;18.04;54.04;93806.25;5041914;28;20039;-88
2022/10/26 10:01:34;;;;;;;9.77;6.72;;;;;;;18.01;54.22;93808.00;5074058;28;20057;-89
2022/10/26 10:04:12;;;;;;;11.23;5.78;;;;;;;18.04;53.93;93809.00;5057032;28;20028;-88
2022/10/26 10:06:39;;;;;;;8.80;5.10;;;;;;;18.05;53.85;93807.75;5071184;28;20059;-88
2022/10/26 10:09:14;;;;;;;11.02;5.50;;;;;;;18.07;53.69;93810.72;5054931;28;20040;-88
2022/10/26 10:11:40;;;;;;;10.00;5.60;;;;;;;18.07;53.97;93811.47;5051139;28;20056;-88
2022/10/26 10:14:08;;;;;;;85.40;19.30;;;;;;;18.07;53.59;93818.94;5034418;28;20261;-88
2022/10/26 10:16:33;;;;;;;35.33;9.80;;;;;;;18.05;53.94;93813.22;5034976;28;20040;-88
2022/10/26 10:18:59;;;;;;;32.70;6.60;;;;;;;18.08;52.62;93807.50;5037192;28;20044;-88
2022/10/26 10:21:37;;;;;;;341.38;40.83;;;;;;;18.05;53.77;93811.22;5036667;28;20066;-88
2022/10/26 10:24:02;;;;;;;153.55;18.55;;;;;;;18.02;54.80;93817.69;5054451;28;20042;-90
2022/10/26 10:26:28;;;;;;;177.73;20.80;;;;;;;17.93;53.92;93812.50;5037221;28;20039;-88
2022/10/26 10:28:58;;;;;;;102.20;12.65;;;;;;;17.92;54.49;93812.97;5054886;28;20032;-90
2022/10/26 10:31:27;;;;;;;105.68;33.30;;;;;;;17.88;54.85;93812.47;5070577;28;20036;-88
2022/10/26 10:33:53;;;;;;;81.18;11.82;;;;;;;17.89;54.62;93808.50;5053160;28;20037;-88
2022/10/26 10:36:19;;;;;;;48.85;10.27;;;;;;;17.92;54.60;93807.50;5068586;28;20031;-88
2022/10/26 10:38:46;;;;;;;36.63;7.25;;;;;;;17.91;54.85;93808.75;5047285;28;20032;-88
2022/10/26 10:41:15;;;;;;;34.05;6.32;;;;;;;17.90;54.62;93807.25;5053318;28;20113;-87
2022/10/26 10:43:53;;;;;;;16.33;4.53;;;;;;;17.86;54.65;93795.81;5070972;28;20131;-88
2022/10/26 10:46:21;;;;;;;16.05;3.63;;;;;;;17.87;54.58;93800.06;5038012;28;20032;-88
2022/10/26 10:48:50;;;;;;;14.80;2.38;;;;;;;17.82;54.22;93787.88;5062740;28;20354;-89
2022/10/26 10:51:18;;;;;;;9.77;3.03;;;;;;;17.88;54.33;93798.81;5054232;28;20275;-88
2022/10/26 10:53:49;;;;;;;9.48;2.53;;;;;;;17.90;54.16;93797.06;5038806;28;20075;-88
2022/10/26 10:56:29;;;;;;;8.80;2.45;;;;;;;17.87;53.95;93800.06;5051001;28;20394;-89
2022/10/26 10:59:25;;;;;;;6.32;2.08;;;;;;;17.86;54.11;93807.50;5064145;28;20742;-88
2022/10/26 11:02:16;;;;;;;8.07;1.92;;;;;;;17.86;54.18;93807.50;5077479;28;20028;-89
2022/10/26 11:04:41;;;;;;;7.93;1.65;;;;;;;17.85;54.28;93797.81;5074684;28;20064;-88
2022/10/26 11:07:07;;;;;;;5.35;1.60;;;;;;;17.87;54.08;93792.59;5089749;28;20068;-88
2022/10/26 11:09:33;;;;;;;7.55;1.85;;;;;;;17.87;53.95;93805.53;5038648;28;20039;-88
2022/10/26 11:12:08;;;;;;;4.25;1.65;;;;;;;17.86;54.30;93810.25;5054663;28;20040;-88
2022/10/26 11:14:37;;;;;;;4.75;2.22;;;;;;;17.89;54.25;93809.25;5051388;28;20048;-88
2022/10/26 11:17:11;;;;;;;7.15;2.17;;;;;;;17.89;54.28;93798.31;5035527;28;20093;-88
2022/10/26 11:19:43;;;;;;;5.65;2.30;;;;;;;17.89;54.09;93806.53;5045121;28;20582;-88
2022/10/26 11:22:13;;;;;;;5.03;2.28;;;;;;;17.91;54.09;93803.28;5048226;28;20047;-88
2022/10/26 11:24:45;;;;;;;3.53;1.98;;;;;;;17.89;54.16;93805.78;4991663;28;20037;-88
2022/10/26 11:27:17;;;;;;;6.72;2.60;;;;;;;17.91;53.91;93806.03;5023584;28;20045;-88
2022/10/26 11:30:00;;;;;;;7.32;2.67;;;;;;;17.91;54.12;93817.72;5007882;28;20041;-87
2022/10/26 11:32:47;;;;;;;5.63;2.60;;;;;;;17.94;54.40;93808.50;5023972;28;20049;-89
2022/10/26 11:35:23;;;;;;;4.43;2.05;;;;;;;17.93;54.13;93817.22;4991011;28;20048;-88
2022/10/26 11:38:01;;;;;;;17.10;3.20;;;;;;;17.96;54.16;93813.50;4956277;28;20054;-88